createdAt,value
2023-02-17T00:00:19.343Z,39.56
2023-02-17T00:00:54.193Z,39.44
2023-02-17T00:01:28.560Z,39.72
2023-02-17T00:02:00.978Z,39.70
2023-02-17T00:02:35.862Z,39.63
2023-02-17T00:03:09.665Z,39.60
2023-02-17T00:03:42.160Z,39.58
2023-02-17T00:04:17.051Z,39.54
2023-02-17T00:04:49.283Z,39.39
2023-02-17T00:05:21.573Z,39.79
2023-02-17T00:05:56.738Z,39.46
2023-02-17T00:06:30.674Z,39.70
2023-02-17T00:07:05.539Z,39.33
2023-02-17T00:07:38.083Z,39.63
2023-02-17T00:08:10.357Z,39.84
2023-02-17T00:08:42.703Z,39.58
2023-02-17T00:09:17.638Z,39.64
2023-02-17T00:09:49.901Z,39.55
2023-02-17T00:10:22.143Z,39.79
2023-02-17T00:11:00.817Z,39.50
2023-02-17T00:11:33.555Z,39.83
2023-02-17T00:12:06.261Z,39.64
2023-02-17T00:12:41.092Z,39.33
2023-02-17T00:13:13.338Z,39.51
2023-02-17T00:13:46.290Z,39.93
2023-02-17T00:14:21.528Z,39.50
2023-02-17T00:14:53.774Z,39.50
2023-02-17T00:15:28.627Z,39.62
2023-02-17T00:16:04.193Z,39.70
2023-02-17T00:16:36.787Z,39.68
2023-02-17T00:17:11.672Z,39.80
2023-02-17T00:17:43.905Z,39.82
2023-02-17T00:18:16.142Z,39.84
2023-02-17T00:18:51.395Z,39.43
2023-02-17T00:19:25.024Z,39.77
2023-02-17T00:19:57.599Z,39.36
2023-02-17T00:20:32.536Z,39.53
2023-02-17T00:21:15.851Z,39.60
2023-02-17T00:21:48.112Z,39.33
2023-02-17T00:22:22.961Z,39.60
2023-02-17T00:22:55.189Z,39.57
2023-02-17T00:23:27.417Z,39.72
2023-02-17T00:24:03.117Z,39.52
2023-02-17T00:24:38.757Z,39.61
2023-02-17T00:25:11.006Z,39.42
2023-02-17T00:25:45.903Z,39.74
2023-02-17T00:26:19.004Z,39.57
2023-02-17T00:26:51.758Z,39.58
2023-02-17T00:27:26.746Z,39.48
2023-02-17T00:27:58.989Z,39.72
2023-02-17T00:28:31.464Z,39.48
2023-02-17T00:29:06.315Z,39.56
2023-02-17T00:29:38.999Z,39.68
2023-02-17T00:30:11.871Z,39.77
2023-02-17T00:30:49.491Z,39.53
2023-02-17T00:31:23.002Z,39.34
2023-02-17T00:31:59.481Z,39.50
2023-02-17T00:32:31.795Z,39.42
2023-02-17T00:33:04.115Z,39.32
2023-02-17T00:33:39.258Z,39.77
2023-02-17T00:34:11.751Z,39.26
2023-02-17T00:34:44.209Z,39.55
2023-02-17T00:35:19.268Z,39.46
2023-02-17T00:35:51.505Z,39.88
2023-02-17T00:36:24.338Z,39.54
2023-02-17T00:36:59.790Z,39.92
2023-02-17T00:37:32.023Z,39.95
2023-02-17T00:38:04.266Z,39.87
2023-02-17T00:38:40.235Z,39.46
2023-02-17T00:39:13.351Z,39.97
2023-02-17T00:39:45.627Z,39.96
2023-02-17T00:40:20.810Z,39.75
2023-02-17T00:40:53.044Z,39.64
2023-02-17T00:41:26.085Z,39.68
2023-02-17T00:42:00.944Z,39.93
2023-02-17T00:42:34.934Z,39.57
2023-02-17T00:43:07.236Z,40.07
2023-02-17T00:43:42.176Z,40.11
2023-02-17T00:44:17.611Z,39.68
2023-02-17T00:44:50.100Z,39.76
2023-02-17T00:45:24.972Z,39.95
2023-02-17T00:45:59.845Z,39.87
2023-02-17T00:46:32.101Z,39.91
2023-02-17T00:47:08.073Z,39.90
2023-02-17T00:47:40.357Z,39.72
2023-02-17T00:48:12.665Z,39.74
2023-02-17T00:48:47.900Z,40.02
2023-02-17T00:49:21.980Z,40.11
2023-02-17T00:49:54.306Z,39.70
2023-02-17T00:50:29.161Z,40.01
2023-02-17T00:51:01.399Z,40.05
2023-02-17T00:51:36.252Z,39.78
2023-02-17T00:52:10.103Z,39.91
2023-02-17T00:52:42.368Z,39.79
2023-02-17T00:53:17.280Z,40.13
2023-02-17T00:53:49.834Z,39.97
2023-02-17T00:54:22.176Z,39.82
2023-02-17T00:54:57.011Z,40.04
2023-02-17T00:55:30.244Z,39.97
2023-02-17T00:56:02.680Z,40.06
2023-02-17T00:56:37.548Z,40.00
2023-02-17T00:57:09.829Z,39.89
2023-02-17T00:57:42.070Z,40.14
2023-02-17T00:58:16.941Z,40.11
2023-02-17T00:58:49.218Z,39.71
2023-02-17T00:59:24.802Z,40.16
2023-02-17T00:59:57.034Z,40.08
2023-02-17T01:00:29.292Z,39.72
2023-02-17T01:01:07.434Z,40.12
2023-02-17T01:01:39.848Z,40.08
2023-02-17T01:02:13.213Z,40.21
2023-02-17T01:02:48.078Z,39.99
2023-02-17T01:03:22.322Z,39.79
2023-02-17T01:03:56.954Z,40.06
2023-02-17T01:04:31.823Z,40.23
2023-02-17T01:05:04.613Z,39.97
2023-02-17T01:05:41.478Z,40.01
2023-02-17T01:06:27.365Z,39.98
2023-02-17T01:06:59.618Z,40.00
2023-02-17T01:07:31.889Z,39.80
2023-02-17T01:08:06.978Z,39.81
2023-02-17T01:08:39.210Z,40.14
2023-02-17T01:09:14.492Z,40.06
2023-02-17T01:09:49.360Z,39.99
2023-02-17T01:10:21.868Z,39.89
2023-02-17T01:10:54.316Z,40.29
2023-02-17T01:11:31.350Z,40.21
2023-02-17T01:12:04.177Z,40.21
2023-02-17T01:12:37.220Z,40.20
2023-02-17T01:13:12.750Z,40.26
2023-02-17T01:13:45.005Z,39.79
2023-02-17T01:14:17.283Z,40.08
2023-02-17T01:14:52.207Z,39.99
2023-02-17T01:15:24.479Z,40.11
2023-02-17T01:15:59.374Z,40.16
2023-02-17T01:16:35.552Z,40.15
2023-02-17T01:17:07.937Z,39.92
2023-02-17T01:17:42.832Z,39.76
2023-02-17T01:18:15.734Z,40.16
2023-02-17T01:18:48.015Z,39.84
2023-02-17T01:19:22.852Z,40.03
2023-02-17T01:19:55.092Z,39.70
2023-02-17T01:20:27.709Z,40.11
2023-02-17T01:21:02.557Z,39.84
2023-02-17T01:21:34.905Z,40.05
2023-02-17T01:22:07.352Z,39.84
2023-02-17T01:22:42.548Z,39.72
2023-02-17T01:23:15.315Z,39.99
2023-02-17T01:23:49.296Z,39.86
2023-02-17T01:24:21.616Z,39.68
2023-02-17T01:24:56.462Z,39.68
2023-02-17T01:25:28.966Z,40.06
2023-02-17T01:26:01.383Z,39.63
2023-02-17T01:26:39.268Z,39.83
2023-02-17T01:27:11.573Z,39.92
2023-02-17T01:27:43.804Z,39.91
2023-02-17T01:28:20.951Z,39.90
2023-02-17T01:28:54.093Z,39.65
2023-02-17T01:29:26.324Z,39.92
2023-02-17T01:30:01.288Z,39.94
2023-02-17T01:30:33.844Z,39.58
2023-02-17T01:31:08.197Z,39.52
2023-02-17T01:31:45.721Z,39.63
2023-02-17T01:32:18.113Z,39.63
2023-02-17T01:32:50.375Z,39.59
2023-02-17T01:33:25.262Z,39.83
2023-02-17T01:34:00.353Z,39.78
2023-02-17T01:34:32.699Z,39.64
2023-02-17T01:35:08.149Z,39.75
2023-02-17T01:35:41.111Z,39.51
2023-02-17T01:36:15.220Z,39.46
2023-02-17T01:36:50.163Z,39.72
2023-02-17T01:37:22.476Z,39.31
2023-02-17T01:37:54.731Z,39.59
2023-02-17T01:38:31.523Z,39.41
2023-02-17T01:39:04.043Z,39.42
2023-02-17T01:39:36.550Z,39.38
2023-02-17T01:40:12.377Z,39.64
2023-02-17T01:40:48.216Z,39.57
2023-02-17T01:41:22.484Z,39.64
2023-02-17T01:41:57.364Z,39.55
2023-02-17T01:42:29.684Z,39.63
2023-02-17T01:43:02.071Z,39.18
2023-02-17T01:43:37.247Z,39.40
2023-02-17T01:44:14.094Z,39.34
2023-02-17T01:45:16.318Z,39.52
2023-02-17T01:45:54.455Z,39.54
2023-02-17T01:46:26.762Z,39.32
2023-02-17T01:47:01.616Z,39.63
2023-02-17T01:47:36.651Z,39.23
2023-02-17T01:48:11.597Z,39.21
2023-02-17T01:48:45.179Z,39.28
2023-02-17T01:49:24.678Z,39.26
2023-02-17T01:49:56.980Z,39.42
2023-02-17T01:50:32.782Z,39.58
2023-02-17T01:51:09.210Z,39.45
2023-02-17T01:51:41.801Z,39.33
2023-02-17T01:52:18.787Z,39.44
2023-02-17T01:52:54.366Z,39.30
2023-02-17T01:53:35.491Z,39.35
2023-02-17T01:54:13.143Z,39.36
2023-02-17T01:54:50.762Z,39.30
2023-02-17T01:55:24.325Z,39.29
2023-02-17T01:55:57.356Z,39.48
2023-02-17T01:56:34.108Z,39.46
2023-02-17T01:57:06.524Z,39.21
2023-02-17T01:57:40.091Z,39.07
2023-02-17T01:58:17.248Z,39.26
2023-02-17T01:58:52.291Z,39.38
2023-02-17T01:59:25.658Z,39.42
2023-02-17T02:00:00.661Z,39.03
2023-02-17T02:00:34.055Z,39.13
2023-02-17T02:01:06.685Z,39.36
2023-02-17T02:01:43.062Z,39.33
2023-02-17T02:02:19.803Z,38.97
2023-02-17T02:02:52.323Z,39.40
2023-02-17T02:03:28.159Z,39.16
2023-02-17T02:04:04.236Z,39.06
2023-02-17T02:04:41.212Z,39.42
2023-02-17T02:05:15.003Z,39.12
2023-02-17T02:05:47.471Z,38.94
2023-02-17T02:06:27.147Z,39.45
2023-02-17T02:06:59.785Z,39.04
2023-02-17T02:07:34.444Z,39.33
2023-02-17T02:08:10.237Z,39.35
2023-02-17T02:08:48.460Z,39.07
2023-02-17T02:09:24.971Z,39.28
2023-02-17T02:09:58.822Z,39.35
2023-02-17T02:10:32.519Z,39.19
2023-02-17T02:11:07.576Z,38.97
2023-02-17T02:11:39.836Z,39.45
2023-02-17T02:12:17.976Z,39.46
2023-02-17T02:12:53.413Z,39.23
2023-02-17T02:13:25.851Z,39.02
2023-02-17T02:13:58.590Z,39.28
2023-02-17T02:14:33.470Z,39.01
2023-02-17T02:15:08.904Z,39.22
2023-02-17T02:15:44.160Z,39.43
2023-02-17T02:16:23.760Z,39.04
2023-02-17T02:17:03.936Z,38.95
2023-02-17T02:17:44.757Z,39.02
2023-02-17T02:18:29.835Z,39.06
2023-02-17T02:19:07.456Z,39.15
2023-02-17T02:20:02.552Z,39.02
2023-02-17T02:20:52.899Z,39.30
2023-02-17T02:22:06.692Z,38.90
2023-02-17T02:23:21.096Z,39.40
2023-02-17T02:24:02.508Z,38.92
2023-02-17T02:24:43.276Z,39.32
2023-02-17T02:25:30.896Z,39.07
2023-02-17T02:26:29.551Z,39.35
2023-02-17T02:27:34.268Z,39.24
2023-02-17T02:28:12.813Z,39.44
2023-02-17T02:28:58.895Z,39.09
2023-02-17T02:29:48.822Z,38.95
2023-02-17T02:30:46.290Z,39.06
2023-02-17T02:31:33.648Z,39.12
2023-02-17T02:32:23.951Z,38.86
2023-02-17T02:33:04.534Z,39.04
2023-02-17T02:33:44.576Z,38.92
2023-02-17T02:34:21.789Z,39.12
2023-02-17T02:34:57.323Z,39.27
2023-02-17T02:35:39.629Z,39.14
2023-02-17T02:36:15.861Z,39.31
2023-02-17T02:36:51.352Z,38.82
2023-02-17T02:37:29.432Z,38.87
2023-02-17T02:38:06.976Z,38.82
2023-02-17T02:38:45.171Z,39.32
2023-02-17T02:39:19.734Z,38.91
2023-02-17T02:39:53.291Z,38.96
2023-02-17T02:40:32.712Z,39.34
2023-02-17T02:41:11.187Z,38.99
2023-02-17T02:41:49.794Z,38.76
2023-02-17T02:42:23.848Z,38.91
2023-02-17T02:42:57.085Z,39.28
2023-02-17T02:43:33.314Z,39.21
2023-02-17T02:44:06.297Z,39.04
2023-02-17T02:44:39.131Z,38.97
2023-02-17T02:45:14.644Z,39.03
2023-02-17T02:45:46.913Z,38.86
2023-02-17T02:46:21.840Z,38.67
2023-02-17T02:46:58.761Z,38.82
2023-02-17T02:47:49.776Z,38.62
2023-02-17T02:48:28.498Z,38.63
2023-02-17T02:49:02.393Z,39.09
2023-02-17T02:49:36.141Z,38.63
2023-02-17T02:50:14.516Z,38.82
2023-02-17T02:51:06.363Z,38.85
2023-02-17T02:51:47.449Z,38.58
2023-02-17T02:52:25.999Z,39.06
2023-02-17T02:53:10.673Z,38.99
2023-02-17T02:53:53.308Z,38.65
2023-02-17T02:54:37.516Z,38.75
2023-02-17T02:55:12.717Z,38.63
2023-02-17T02:55:55.703Z,38.97
2023-02-17T02:56:42.613Z,38.87
2023-02-17T02:57:21.506Z,38.70
2023-02-17T02:58:03.997Z,38.78
2023-02-17T02:58:41.664Z,38.62
2023-02-17T02:59:26.060Z,38.95
2023-02-17T03:00:15.652Z,38.82
2023-02-17T03:00:54.273Z,38.97
2023-02-17T03:01:31.949Z,38.65
2023-02-17T03:02:11.430Z,38.71
2023-02-17T03:02:45.998Z,38.63
2023-02-17T03:03:26.149Z,39.02
2023-02-17T03:04:07.985Z,38.73
2023-02-17T03:04:44.801Z,38.80
2023-02-17T03:05:24.365Z,38.60
2023-02-17T03:06:02.581Z,38.78
2023-02-17T03:06:40.197Z,38.58
2023-02-17T03:07:21.430Z,38.83
2023-02-17T03:07:57.176Z,38.55
2023-02-17T03:08:33.166Z,38.61
2023-02-17T03:09:10.779Z,38.99
2023-02-17T03:09:43.134Z,38.92
2023-02-17T03:10:18.663Z,38.68
2023-02-17T03:10:55.401Z,38.80
2023-02-17T03:11:32.555Z,38.76
2023-02-17T03:12:07.173Z,38.54
2023-02-17T03:12:42.885Z,38.81
2023-02-17T03:13:15.449Z,38.82
2023-02-17T03:13:47.847Z,38.56
2023-02-17T03:14:24.550Z,38.70
2023-02-17T03:15:01.987Z,38.82
2023-02-17T03:15:35.732Z,38.55
2023-02-17T03:16:13.044Z,38.81
2023-02-17T03:16:46.263Z,38.66
2023-02-17T03:17:18.528Z,38.64
2023-02-17T03:17:59.851Z,38.88
2023-02-17T03:18:35.491Z,38.93
2023-02-17T03:19:09.246Z,38.97
2023-02-17T03:19:45.712Z,38.85
2023-02-17T03:20:18.164Z,38.61
2023-02-17T03:20:53.653Z,38.75
2023-02-17T03:21:31.603Z,38.56
2023-02-17T03:22:08.290Z,38.68
2023-02-17T03:22:43.896Z,38.98
2023-02-17T03:23:18.761Z,38.98
2023-02-17T03:23:51.001Z,38.80
2023-02-17T03:24:23.262Z,38.62
2023-02-17T03:24:55.912Z,38.58
2023-02-17T03:25:30.793Z,38.80
2023-02-17T03:26:03.187Z,38.61
2023-02-17T03:26:35.772Z,39.04
2023-02-17T03:27:10.811Z,38.74
2023-02-17T03:27:43.137Z,38.82
2023-02-17T03:28:15.427Z,38.99
2023-02-17T03:28:50.401Z,38.75
2023-02-17T03:29:22.648Z,38.90
2023-02-17T03:29:55.033Z,38.70
2023-02-17T03:30:30.842Z,38.65
2023-02-17T03:31:03.349Z,38.97
2023-02-17T03:31:36.137Z,39.00
2023-02-17T03:32:08.505Z,38.99
2023-02-17T03:32:44.312Z,38.63
2023-02-17T03:33:16.561Z,38.59
2023-02-17T03:33:51.408Z,38.70
2023-02-17T03:34:26.255Z,38.63
2023-02-17T03:34:58.509Z,38.99
2023-02-17T03:35:30.811Z,38.99
2023-02-17T03:36:05.898Z,38.92
2023-02-17T03:36:38.493Z,38.57
2023-02-17T03:37:10.758Z,38.62
2023-02-17T03:37:45.614Z,38.62
2023-02-17T03:38:18.013Z,38.58
2023-02-17T03:38:50.386Z,38.73
2023-02-17T03:39:25.296Z,38.84
2023-02-17T03:39:57.539Z,38.65
2023-02-17T03:40:29.952Z,38.99
2023-02-17T03:41:04.864Z,38.85
2023-02-17T03:41:37.107Z,38.60
2023-02-17T03:42:09.392Z,38.61
2023-02-17T03:42:44.220Z,38.95
2023-02-17T03:43:17.947Z,38.63
2023-02-17T03:43:50.422Z,38.68
2023-02-17T03:44:25.307Z,38.95
2023-02-17T03:44:57.605Z,38.83
2023-02-17T03:45:33.026Z,38.55
2023-02-17T03:46:05.758Z,38.68
2023-02-17T03:46:39.385Z,38.69
2023-02-17T03:47:14.240Z,38.65
2023-02-17T03:47:46.530Z,38.90
2023-02-17T03:48:18.779Z,38.83
2023-02-17T03:48:56.220Z,38.66
2023-02-17T03:49:28.531Z,38.70
2023-02-17T03:50:00.787Z,38.57
2023-02-17T03:50:35.646Z,38.73
2023-02-17T03:51:12.637Z,38.47
2023-02-17T03:51:44.979Z,38.88
2023-02-17T03:52:17.237Z,38.96
2023-02-17T03:52:52.062Z,38.80
2023-02-17T03:53:24.539Z,38.97
2023-02-17T03:53:56.802Z,38.55
2023-02-17T03:54:31.680Z,38.51
2023-02-17T03:55:04.307Z,38.89
2023-02-17T03:55:39.165Z,38.89
2023-02-17T03:56:11.823Z,38.74
2023-02-17T03:56:44.128Z,38.97
2023-02-17T03:57:18.976Z,38.70
2023-02-17T03:57:51.204Z,38.85
2023-02-17T03:58:23.427Z,38.75
2023-02-17T03:58:58.331Z,38.55
2023-02-17T03:59:30.615Z,38.82
2023-02-17T04:00:03.771Z,38.42
2023-02-17T04:00:47.771Z,38.89
2023-02-17T04:01:20.471Z,38.54
2023-02-17T04:01:52.762Z,38.70
2023-02-17T04:02:27.655Z,38.46
2023-02-17T04:03:00.167Z,38.89
2023-02-17T04:03:32.424Z,38.63
2023-02-17T04:04:09.937Z,38.58
2023-02-17T04:04:42.264Z,38.87
2023-02-17T04:05:14.540Z,38.89
2023-02-17T04:05:49.364Z,38.65
2023-02-17T04:06:21.740Z,38.75
2023-02-17T04:06:54.028Z,38.90
2023-02-17T04:07:28.905Z,38.48
2023-02-17T04:08:01.268Z,38.57
2023-02-17T04:08:33.536Z,38.61
2023-02-17T04:09:08.375Z,38.74
2023-02-17T04:09:42.492Z,38.66
2023-02-17T04:10:14.823Z,38.75
2023-02-17T04:10:49.742Z,38.64
2023-02-17T04:11:22.072Z,38.45
2023-02-17T04:11:54.308Z,38.89
2023-02-17T04:12:29.244Z,38.86
2023-02-17T04:13:01.536Z,38.65
2023-02-17T04:13:34.050Z,38.50
2023-02-17T04:14:08.875Z,38.64
2023-02-17T04:14:41.142Z,38.95
2023-02-17T04:15:13.468Z,38.64
2023-02-17T04:15:45.802Z,38.53
2023-02-17T04:16:20.846Z,38.80
2023-02-17T04:16:53.096Z,38.82
2023-02-17T04:17:25.454Z,38.85
2023-02-17T04:18:00.355Z,38.51
2023-02-17T04:18:32.990Z,38.93
2023-02-17T04:19:08.912Z,38.45
2023-02-17T04:19:43.884Z,38.75
2023-02-17T04:20:16.121Z,38.73
2023-02-17T04:20:49.468Z,38.58
2023-02-17T04:21:24.361Z,38.51
2023-02-17T04:21:56.598Z,38.97
2023-02-17T04:22:28.843Z,38.63
2023-02-17T04:23:01.103Z,38.94
2023-02-17T04:23:37.362Z,38.54
2023-02-17T04:24:10.181Z,38.75
2023-02-17T04:24:42.644Z,38.85
2023-02-17T04:25:17.485Z,38.73
2023-02-17T04:25:50.217Z,38.72
2023-02-17T04:26:22.459Z,38.48
2023-02-17T04:26:57.397Z,38.58
2023-02-17T04:27:29.628Z,38.51
2023-02-17T04:28:01.998Z,38.64
2023-02-17T04:28:38.376Z,38.69
2023-02-17T04:29:10.676Z,38.54
2023-02-17T04:29:43.193Z,38.98
2023-02-17T04:30:18.933Z,38.60
2023-02-17T04:30:51.836Z,38.65
2023-02-17T04:31:26.033Z,39.05
2023-02-17T04:32:01.045Z,38.74
2023-02-17T04:32:33.640Z,38.56
2023-02-17T04:33:06.060Z,39.06
2023-02-17T04:33:40.920Z,38.80
2023-02-17T04:34:15.760Z,38.89
2023-02-17T04:34:48.006Z,38.87
2023-02-17T04:35:22.886Z,39.00
2023-02-17T04:35:59.727Z,39.04
2023-02-17T04:36:34.625Z,38.73
2023-02-17T04:37:07.304Z,39.06
2023-02-17T04:37:39.524Z,39.04
2023-02-17T04:38:14.485Z,39.09
2023-02-17T04:38:46.708Z,38.80
2023-02-17T04:39:19.235Z,39.07
2023-02-17T04:39:54.142Z,38.99
2023-02-17T04:40:26.384Z,39.10
2023-02-17T04:41:00.112Z,39.16
2023-02-17T04:41:34.958Z,38.73
2023-02-17T04:42:07.248Z,39.12
2023-02-17T04:42:39.661Z,39.07
2023-02-17T04:43:14.607Z,38.81
2023-02-17T04:43:46.846Z,39.11
2023-02-17T04:44:19.200Z,39.12
2023-02-17T04:44:54.051Z,39.10
2023-02-17T04:45:26.317Z,38.85
2023-02-17T04:45:59.000Z,39.09
2023-02-17T04:46:33.861Z,39.08
2023-02-17T04:47:06.097Z,39.03
2023-02-17T04:47:38.628Z,39.08
2023-02-17T04:48:13.461Z,38.59
2023-02-17T04:48:45.683Z,38.84
2023-02-17T04:49:20.497Z,38.72
2023-02-17T04:49:55.349Z,39.16
2023-02-17T04:50:27.591Z,38.70
2023-02-17T04:50:59.915Z,38.82
2023-02-17T04:51:34.806Z,38.65
2023-02-17T04:52:07.078Z,39.09
2023-02-17T04:52:39.331Z,39.16
2023-02-17T04:53:14.546Z,39.12
2023-02-17T04:53:46.797Z,39.02
2023-02-17T04:54:19.068Z,38.83
2023-02-17T04:54:53.931Z,39.07
2023-02-17T04:55:26.259Z,38.99
2023-02-17T04:55:58.488Z,39.21
2023-02-17T04:56:33.348Z,38.76
2023-02-17T04:57:05.590Z,38.95
2023-02-17T04:57:37.941Z,38.75
2023-02-17T04:58:13.463Z,39.01
2023-02-17T04:58:45.705Z,38.85
2023-02-17T04:59:17.935Z,38.99
2023-02-17T04:59:52.749Z,38.77
2023-02-17T05:00:25.234Z,38.75
2023-02-17T05:00:59.275Z,39.04
2023-02-17T05:01:34.155Z,38.73
2023-02-17T05:02:06.485Z,39.03
2023-02-17T05:02:38.773Z,38.78
2023-02-17T05:03:13.639Z,38.85
2023-02-17T05:03:45.866Z,39.17
2023-02-17T05:04:20.926Z,39.23
2023-02-17T05:04:55.839Z,39.12
2023-02-17T05:05:28.124Z,38.99
2023-02-17T05:06:03.302Z,38.68
2023-02-17T05:06:35.692Z,38.85
2023-02-17T05:07:07.916Z,39.07
2023-02-17T05:07:40.142Z,38.80
2023-02-17T05:08:15.016Z,38.94
2023-02-17T05:08:48.353Z,39.14
2023-02-17T05:09:20.780Z,38.92
2023-02-17T05:09:56.119Z,38.95
2023-02-17T05:10:28.498Z,38.94
2023-02-17T05:11:00.984Z,39.08
2023-02-17T05:11:35.829Z,39.12
2023-02-17T05:12:08.392Z,38.95
2023-02-17T05:12:40.650Z,38.57
2023-02-17T05:13:15.504Z,38.53
2023-02-17T05:13:47.721Z,38.97
2023-02-17T05:14:19.970Z,38.98
2023-02-17T05:14:54.836Z,38.71
2023-02-17T05:15:27.302Z,38.87
2023-02-17T05:15:59.619Z,38.69
2023-02-17T05:16:34.531Z,38.96
2023-02-17T05:17:06.793Z,39.07
2023-02-17T05:17:39.034Z,38.59
2023-02-17T05:18:13.904Z,39.04
2023-02-17T05:18:46.188Z,38.94
2023-02-17T05:19:21.019Z,38.69
2023-02-17T05:19:55.860Z,38.58
2023-02-17T05:20:28.165Z,38.61
2023-02-17T05:21:00.399Z,39.03
2023-02-17T05:21:35.243Z,39.04
2023-02-17T05:22:07.490Z,39.08
2023-02-17T05:22:39.748Z,38.73
2023-02-17T05:23:14.610Z,38.64
2023-02-17T05:23:46.906Z,39.08
2023-02-17T05:24:19.174Z,38.83
2023-02-17T05:24:54.015Z,38.89
2023-02-17T05:25:26.283Z,38.82
2023-02-17T05:26:01.155Z,38.90
2023-02-17T05:26:33.402Z,38.75
2023-02-17T05:27:05.665Z,38.94
2023-02-17T05:27:40.533Z,38.79
2023-02-17T05:28:12.791Z,39.02
2023-02-17T05:28:45.175Z,38.69
2023-02-17T05:29:20.049Z,39.20
2023-02-17T05:29:52.319Z,38.77
2023-02-17T05:30:27.203Z,39.17
2023-02-17T05:31:01.067Z,39.07
2023-02-17T05:31:33.495Z,39.07
2023-02-17T05:32:08.552Z,38.82
2023-02-17T05:32:40.837Z,39.07
2023-02-17T05:33:13.088Z,39.03
2023-02-17T05:33:47.926Z,38.86
2023-02-17T05:34:22.747Z,38.84
2023-02-17T05:34:54.984Z,39.10
2023-02-17T05:35:30.097Z,39.10
2023-02-17T05:36:05.240Z,39.08
2023-02-17T05:36:37.675Z,39.05
2023-02-17T05:37:12.645Z,39.32
2023-02-17T05:37:46.074Z,39.27
2023-02-17T05:38:20.901Z,39.12
2023-02-17T05:38:53.243Z,39.26
2023-02-17T05:39:25.468Z,38.85
2023-02-17T05:40:00.316Z,39.16
2023-02-17T05:40:32.611Z,39.29
2023-02-17T05:41:05.282Z,38.94
2023-02-17T05:41:40.213Z,39.14
2023-02-17T05:42:12.568Z,39.07
2023-02-17T05:42:45.619Z,38.97
2023-02-17T05:43:20.463Z,39.14
2023-02-17T05:43:52.770Z,39.07
2023-02-17T05:44:25.009Z,38.95
2023-02-17T05:44:59.865Z,39.33
2023-02-17T05:45:32.237Z,39.36
2023-02-17T05:46:05.975Z,39.09
2023-02-17T05:46:41.021Z,39.10
2023-02-17T05:47:13.330Z,39.21
2023-02-17T05:47:45.583Z,39.09
2023-02-17T05:48:20.488Z,39.18
2023-02-17T05:48:52.772Z,39.31
2023-02-17T05:49:27.896Z,39.17
2023-02-17T05:50:02.799Z,39.32
2023-02-17T05:50:35.096Z,39.05
2023-02-17T05:51:08.317Z,38.92
2023-02-17T05:51:43.306Z,39.35
2023-02-17T05:52:16.926Z,39.09
2023-02-17T05:52:51.762Z,39.63
2023-02-17T05:53:24.029Z,40.84
2023-02-17T05:53:56.251Z,41.05
2023-02-17T05:54:31.098Z,40.86
2023-02-17T05:55:04.863Z,40.74
2023-02-17T05:55:39.794Z,40.58
2023-02-17T05:56:12.324Z,40.67
2023-02-17T05:56:44.591Z,41.17
2023-02-17T05:57:19.404Z,41.39
2023-02-17T05:57:51.631Z,41.54
2023-02-17T05:58:24.035Z,41.53
2023-02-17T05:58:58.900Z,41.51
2023-02-17T05:59:31.162Z,41.91
2023-02-17T06:00:04.440Z,41.68
2023-02-17T06:00:47.081Z,41.40
2023-02-17T06:01:19.306Z,41.62
2023-02-17T06:01:51.563Z,41.18
2023-02-17T06:02:26.394Z,41.67
2023-02-17T06:02:58.632Z,41.51
2023-02-17T06:03:30.898Z,41.57
2023-02-17T06:04:05.736Z,41.58
2023-02-17T06:04:40.657Z,41.07
2023-02-17T06:05:13.151Z,41.22
2023-02-17T06:05:48.316Z,41.48
2023-02-17T06:06:20.642Z,41.00
2023-02-17T06:06:52.989Z,40.92
2023-02-17T06:07:27.824Z,41.31
2023-02-17T06:08:00.040Z,41.05
2023-02-17T06:08:32.298Z,41.11
2023-02-17T06:09:07.157Z,41.05
2023-02-17T06:09:39.436Z,41.19
2023-02-17T06:10:12.175Z,41.16
2023-02-17T06:10:47.284Z,40.86
2023-02-17T06:11:19.531Z,40.74
2023-02-17T06:11:52.182Z,41.15
2023-02-17T06:12:28.455Z,41.08
2023-02-17T06:13:00.715Z,40.79
2023-02-17T06:13:32.988Z,40.71
2023-02-17T06:14:08.046Z,40.78
2023-02-17T06:14:40.281Z,40.85
2023-02-17T06:15:12.590Z,40.76
2023-02-17T06:15:47.643Z,41.11
2023-02-17T06:16:19.981Z,40.89
2023-02-17T06:16:52.310Z,40.67
2023-02-17T06:17:27.135Z,40.87
2023-02-17T06:17:59.585Z,40.94
2023-02-17T06:18:31.955Z,40.65
2023-02-17T06:19:07.403Z,40.62
2023-02-17T06:19:42.302Z,40.88
2023-02-17T06:20:15.231Z,40.62
2023-02-17T06:20:50.113Z,41.07
2023-02-17T06:21:22.406Z,40.74
2023-02-17T06:21:57.368Z,40.76
2023-02-17T06:22:29.593Z,40.57
2023-02-17T06:23:01.864Z,40.72
2023-02-17T06:23:36.729Z,40.78
2023-02-17T06:24:08.975Z,40.58
2023-02-17T06:24:41.207Z,40.52
2023-02-17T06:25:16.051Z,40.59
2023-02-17T06:25:48.304Z,40.88
2023-02-17T06:26:23.222Z,40.82
2023-02-17T06:26:55.444Z,41.03
2023-02-17T06:27:27.775Z,41.06
2023-02-17T06:28:02.698Z,40.74
2023-02-17T06:28:35.263Z,40.96
2023-02-17T06:29:07.760Z,40.91
2023-02-17T06:29:42.722Z,40.81
2023-02-17T06:30:17.698Z,40.91
2023-02-17T06:30:49.976Z,40.81
2023-02-17T06:31:24.878Z,41.19
2023-02-17T06:31:57.276Z,41.20
2023-02-17T06:32:29.538Z,41.18
2023-02-17T06:33:05.409Z,40.73
2023-02-17T06:33:37.693Z,40.77
2023-02-17T06:34:09.921Z,40.88
2023-02-17T06:34:47.678Z,41.06
2023-02-17T06:35:19.916Z,41.00
2023-02-17T06:35:52.433Z,41.18
2023-02-17T06:36:27.279Z,40.82
2023-02-17T06:36:59.499Z,40.65
2023-02-17T06:37:31.721Z,40.81
2023-02-17T06:38:06.707Z,40.67
2023-02-17T06:38:38.975Z,40.67
2023-02-17T06:39:11.352Z,40.57
2023-02-17T06:39:46.192Z,40.79
2023-02-17T06:40:19.243Z,40.85
2023-02-17T06:40:51.557Z,40.88
2023-02-17T06:41:26.407Z,40.67
2023-02-17T06:41:58.676Z,40.61
2023-02-17T06:42:31.027Z,41.01
2023-02-17T06:43:05.919Z,40.89
2023-02-17T06:43:38.166Z,40.58
2023-02-17T06:44:13.086Z,40.88
2023-02-17T06:44:45.320Z,40.47
2023-02-17T06:45:17.939Z,40.47
2023-02-17T06:45:52.846Z,40.48
2023-02-17T06:46:25.112Z,40.62
2023-02-17T06:47:00.261Z,40.49
2023-02-17T06:47:32.554Z,40.81
2023-02-17T06:48:07.620Z,40.68
2023-02-17T06:48:39.941Z,40.66
2023-02-17T06:49:12.213Z,41.00
2023-02-17T06:49:49.898Z,40.53
2023-02-17T06:50:22.232Z,40.69
2023-02-17T06:50:57.069Z,40.95
2023-02-17T06:51:29.673Z,41.03
2023-02-17T06:52:01.936Z,40.87
2023-02-17T06:52:36.872Z,40.61
2023-02-17T06:53:09.135Z,40.64
2023-02-17T06:53:43.966Z,40.98
2023-02-17T06:54:16.205Z,40.95
2023-02-17T06:54:51.036Z,40.98
2023-02-17T06:55:23.318Z,40.76
2023-02-17T06:55:55.555Z,40.59
2023-02-17T06:56:30.373Z,40.52
2023-02-17T06:57:02.681Z,40.54
2023-02-17T06:57:34.967Z,40.71
2023-02-17T06:58:10.199Z,40.55
2023-02-17T06:58:42.440Z,40.55
2023-02-17T06:59:17.279Z,40.83
2023-02-17T06:59:49.559Z,40.43
2023-02-17T07:00:22.738Z,40.45
2023-02-17T07:00:57.590Z,40.92
2023-02-17T07:01:29.936Z,40.92
2023-02-17T07:02:04.880Z,40.53
2023-02-17T07:02:38.191Z,40.74
2023-02-17T07:03:13.240Z,40.82
2023-02-17T07:03:45.557Z,40.86
2023-02-17T07:04:17.801Z,40.68
2023-02-17T07:04:55.317Z,41.00
2023-02-17T07:05:27.703Z,40.91
2023-02-17T07:06:00.127Z,40.87
2023-02-17T07:06:35.065Z,40.69
2023-02-17T07:07:07.802Z,41.01
2023-02-17T07:07:42.651Z,40.90
2023-02-17T07:08:14.953Z,40.81
2023-02-17T07:08:49.959Z,40.88
2023-02-17T07:09:22.263Z,40.93
2023-02-17T07:09:54.491Z,40.84
2023-02-17T07:10:29.337Z,40.96
2023-02-17T07:11:05.560Z,41.10
2023-02-17T07:11:40.507Z,40.79
2023-02-17T07:12:12.774Z,40.79
2023-02-17T07:12:47.636Z,41.14
2023-02-17T07:13:19.981Z,40.78
2023-02-17T07:13:54.810Z,41.12
2023-02-17T07:14:27.337Z,40.65
2023-02-17T07:14:59.596Z,41.05
2023-02-17T07:15:34.447Z,41.00
2023-02-17T07:16:07.696Z,41.14
2023-02-17T07:16:40.240Z,41.10
2023-02-17T07:17:15.569Z,41.09
2023-02-17T07:17:47.805Z,40.81
2023-02-17T07:18:20.058Z,40.84
2023-02-17T07:18:55.339Z,40.88
2023-02-17T07:19:27.750Z,40.83
2023-02-17T07:20:05.309Z,40.66
2023-02-17T07:20:39.247Z,40.80
2023-02-17T07:21:14.312Z,40.66
2023-02-17T07:21:46.570Z,40.91
2023-02-17T07:22:18.934Z,40.91
2023-02-17T07:22:54.319Z,40.88
2023-02-17T07:23:26.862Z,41.11
2023-02-17T07:24:01.747Z,40.81
2023-02-17T07:24:34.233Z,40.85
2023-02-17T07:25:07.354Z,41.16
2023-02-17T07:25:42.485Z,40.79